Latest Weather Observations for Mareeba

IDQ60801

Issued at 9:05 pm EST Tuesday 16 September 2014 (issued every 30 minutes, with the page automatically refreshed every 10 minutes)

About weather observations | Map of weather stations | Latest weather observations for QLD | Other Formats
Station Details ID: 031210 Name: MAREEBA AIRPORT Lat: -17.07 Lon: 145.43 Height: 471.93 m
Data from the previous 72 hours. | See also: Recent months at Mareeba
Date/Time
EST
Temp
°C
App
Temp
°C
Dew
Point
Rel
Hum
%
Delta-T
°C
Wind Press
QNH
hPa
Press
MSL
hPa
Rain
since 9 am
mm
Dir
 
Spd
km/h
Gust
km/h
Spd
kts
Gust
kts
16/09:00pm 18.6 18.7 14.5 77 2.4 ESE 7 11 4 6 1017.8 1015.6 0.0
16/08:30pm 17.7 18.8 13.6 77 2.4 E 0 0 0 0 1017.4 - 0.0
16/08:00pm 18.6 18.6 14.1 75 2.6 ESE 7 9 4 5 1017.0 - 0.0
16/07:30pm 19.3 19.7 14.8 75 2.7 ESE 6 9 3 5 1016.6 - 0.0
16/07:00pm 20.0 19.5 15.0 73 3.0 NE 11 17 6 9 1016.4 - 0.0
16/06:30pm 20.8 19.9 14.9 69 3.5 NE 13 20 7 11 1015.9 - 0.0
16/06:00pm 22.1 21.5 14.7 63 4.5 NE 11 19 6 10 1015.2 1013.0 0.0
16/05:30pm 22.8 21.0 14.4 59 5.0 NNE 17 22 9 12 1014.8 - 0.0
16/05:00pm 23.7 22.9 14.1 55 5.8 NE 11 20 6 11 1014.6 - 0.0
16/04:30pm 25.2 22.3 11.0 41 8.1 ESE 17 32 9 17 1014.3 - 0.0
16/04:00pm 26.3 23.0 9.6 35 9.4 ESE 17 24 9 13 1013.9 - 0.0
16/03:30pm 26.4 22.1 9.3 34 9.6 SE 22 32 12 17 1013.8 - 0.0
16/02:30pm 27.0 23.2 8.9 32 10.1 SE 19 35 10 19 1014.3 - 0.0
16/02:00pm 27.9 23.2 9.2 31 10.5 SE 24 32 13 17 1014.6 - 0.0
16/01:30pm 28.0 25.1 9.8 32 10.4 S 15 30 8 16 1014.9 - 0.0
16/01:00pm 26.8 22.3 8.7 32 10.1 SE 22 35 12 19 1015.5 - 0.0
16/12:30pm 26.8 23.4 10.5 36 9.3 ESE 19 32 10 17 1016.1 - 0.0
16/12:00pm 27.2 23.3 10.8 36 9.5 SE 22 37 12 20 1016.6 1014.4 0.0
16/11:30am 26.1 23.4 10.3 37 9.0 ESE 15 22 8 12 1017.2 - 0.0
16/11:00am 25.6 22.7 11.0 40 8.4 SE 17 30 9 16 1017.9 - 0.0
16/10:30am 24.5 22.7 12.1 46 7.2 ESE 13 22 7 12 1018.3 - 0.0
16/10:00am 24.1 24.0 13.9 53 6.1 SE 7 19 4 10 1018.5 - 0.0
16/09:30am 22.7 21.3 13.5 56 5.4 E 13 22 7 12 1019.0 - 0.0
16/09:00am 22.0 20.8 13.9 60 4.8 ESE 13 19 7 10 1018.9 1016.7 0.0
16/08:30am 21.2 19.7 14.1 64 4.2 SE 15 20 8 11 1018.8 - 0.0
16/08:00am 19.9 18.6 14.7 72 3.1 SE 15 22 8 12 1018.8 - 0.0
16/07:30am 18.4 16.6 14.5 78 2.3 SE 17 26 9 14 1018.4 - 0.0
16/07:00am 17.2 15.0 14.3 83 1.7 SSE 19 24 10 13 1017.9 - 0.0
16/06:30am 16.3 14.0 14.1 87 1.3 SSE 19 24 10 13 1017.6 - 0.0
16/06:00am 16.4 14.5 14.2 87 1.3 SSE 17 24 9 13 1017.3 1015.2 0.0
16/05:30am 16.3 14.4 14.1 87 1.3 SSE 17 20 9 11 1016.9 - 0.0
16/05:00am 15.8 14.7 14.3 91 0.9 SSE 13 17 7 9 1016.7 - 0.0
16/04:30am 14.9 15.2 13.3 90 0.9 ESE 4 7 2 4 1016.5 - 0.0
16/04:00am 15.6 15.0 13.6 88 1.1 SE 9 13 5 7 1016.4 - 0.0
16/03:30am 15.4 15.2 13.6 89 1.0 SE 7 11 4 6 1016.3 - 0.0
16/03:00am 15.5 15.3 13.7 89 1.0 SE 7 11 4 6 1016.4 1014.2 0.0
16/02:30am 15.4 15.3 13.8 90 0.9 SE 7 13 4 7 1016.4 - 0.0
16/02:00am 15.1 15.9 12.6 85 1.4 CALM 0 0 0 0 1016.6 - 0.0
16/01:30am 15.9 16.7 13.7 87 1.3 SE 2 11 1 6 1016.9 - 0.0
16/01:00am 16.5 16.0 13.8 84 1.6 SSE 9 13 5 7 1017.0 - 0.0
16/12:30am 17.4 16.3 14.3 82 1.8 SSE 13 17 7 9 1017.2 - 0.0
16/12:00am 17.3 15.1 14.4 83 1.7 SSE 19 22 10 12 1017.6 1015.4 0.0
 
Date/Time
EST
Temp
°C
App
Temp
°C
Dew
Point
Rel
Hum
%
Delta-T
°C
Wind Press
QNH
hPa
Press
MSL
hPa
Rain
since 9 am
mm
Dir
 
Spd
km/h
Gust
km/h
Spd
kts
Gust
kts
15/11:30pm 17.4 15.0 14.3 82 1.8 SSE 20 24 11 13 1017.4 - 0.0
15/11:00pm 17.2 15.2 13.9 81 1.9 SSE 17 22 9 12 1017.4 - 0.0
15/10:30pm 17.5 15.2 14.0 80 2.0 SSE 19 24 10 13 1017.2 - 0.0
15/10:00pm 17.6 15.7 14.1 80 2.0 SE 17 26 9 14 1017.2 - 0.0
15/09:30pm 17.8 17.3 13.7 77 2.4 ESE 9 13 5 7 1017.2 - 0.0
15/09:00pm 18.2 15.3 14.1 77 2.4 SSE 22 30 12 16 1016.9 1014.7 0.0
15/08:30pm 18.0 16.8 13.9 77 2.4 SE 13 20 7 11 1017.0 - 0.0
15/08:00pm 18.6 16.6 13.9 74 2.7 SE 17 24 9 13 1016.6 - 0.0
15/07:30pm 19.0 15.6 13.8 72 3.0 SSE 24 32 13 17 1016.4 - 0.0
15/07:00pm 19.7 16.6 13.4 67 3.7 SSE 22 30 12 16 1016.1 - 0.0
15/06:30pm 20.3 17.4 13.0 63 4.2 SSE 20 30 11 16 1015.7 - 0.0
15/06:00pm 21.4 17.9 13.3 60 4.7 SSE 24 33 13 18 1015.5 1013.3 0.0
15/05:30pm 22.5 19.6 13.0 55 5.6 SSE 20 30 11 16 1015.0 - 0.0
15/05:00pm 23.4 20.2 13.0 52 6.1 SE 22 32 12 17 1014.8 - 0.0
15/04:30pm 24.2 20.5 12.8 49 6.7 SSE 24 32 13 17 1014.5 - 0.0
15/04:00pm 24.5 22.2 13.1 49 6.8 SE 17 28 9 15 1014.3 - 0.0
15/03:30pm 24.9 21.1 13.5 49 6.8 SE 26 35 14 19 1014.2 - 0.0
15/03:00pm 25.3 20.9 12.9 46 7.3 SE 28 39 15 21 1014.4 1012.2 0.0
15/02:30pm 25.4 21.2 13.6 48 7.1 SSE 28 39 15 21 1014.7 - 0.0
15/02:00pm 25.9 22.4 13.4 46 7.5 ESE 24 33 13 18 1014.7 - 0.0
15/01:30pm 26.2 22.5 10.0 36 9.2 E 20 30 11 16 1014.8 - 0.0
15/01:00pm 26.3 23.5 11.2 38 8.7 SE 17 30 9 16 1015.4 - 0.0
15/12:30pm 26.6 22.9 11.5 39 8.8 SE 22 33 12 18 1015.9 - 0.0
15/12:00pm 25.7 21.7 10.3 38 8.7 SSE 22 33 12 18 1016.4 1014.2 0.0
15/11:30am 25.4 21.0 11.6 42 8.0 SE 26 37 14 20 1016.9 - 0.0
15/11:00am 24.7 21.1 12.0 45 7.4 SE 22 41 12 22 1017.2 - 0.0
15/10:30am 24.3 20.5 12.3 47 7.0 SE 24 32 13 17 1017.8 - 0.0
15/10:00am 23.0 19.2 12.3 51 6.2 SSE 24 37 13 20 1017.9 - 0.0
15/09:30am 22.6 20.0 13.1 55 5.6 SE 19 26 10 14 1018.0 - 0.0
15/09:00am 21.3 17.7 13.2 60 4.7 SE 24 33 13 18 1018.1 1015.9 0.0
15/08:30am 20.3 16.5 13.5 65 4.0 SE 26 35 14 19 1018.2 - 0.0
15/08:00am 19.0 16.0 13.6 71 3.1 SSE 22 32 12 17 1018.0 - 0.0
15/07:30am 17.6 14.8 13.3 76 2.5 SE 20 26 11 14 1017.8 - 0.0
15/07:00am 16.6 13.4 13.1 80 2.0 SE 22 32 12 17 1017.7 - 0.0
15/06:30am 15.9 12.3 13.0 83 1.6 SSE 24 32 13 17 1017.2 - 0.0
15/06:00am 15.6 12.3 12.7 83 1.6 SSE 22 32 12 17 1017.0 1014.8 0.0
15/05:30am 15.6 12.3 12.9 84 1.5 SSE 22 30 12 16 1016.8 - 0.0
15/05:00am 15.2 14.0 12.7 85 1.4 SSE 11 15 6 8 1016.8 - 0.0
15/04:30am 15.9 13.5 12.8 82 1.8 SE 17 22 9 12 1016.6 - 0.0
15/04:00am 15.9 13.5 12.6 81 1.9 SSE 17 24 9 13 1016.5 - 0.0
15/03:30am 16.0 14.0 12.6 80 1.9 SSE 15 20 8 11 1016.3 - 0.0
15/03:00am 16.0 14.0 12.7 81 1.9 SSE 15 20 8 11 1016.3 1014.1 0.0
15/02:30am 15.9 13.8 12.5 80 1.9 SSE 15 20 8 11 1016.5 - 0.0
15/02:00am 16.2 13.4 12.7 80 2.0 SSE 19 24 10 13 1016.7 - 0.0
15/01:30am 16.3 13.9 12.7 79 2.0 SE 17 26 9 14 1016.8 - 0.0
15/01:00am 16.5 13.2 12.8 79 2.1 SE 22 32 12 17 1016.9 - 0.0
15/12:30am 16.6 13.4 13.1 80 2.0 SE 22 32 12 17 1017.2 - 0.0
15/12:00am 16.5 13.3 13.2 81 1.9 SE 22 32 12 17 1017.6 1015.4 0.0
 
Date/Time
EST
Temp
°C
App
Temp
°C
Dew
Point
Rel
Hum
%
Delta-T
°C
Wind Press
QNH
hPa
Press
MSL
hPa
Rain
since 9 am
mm
Dir
 
Spd
km/h
Gust
km/h
Spd
kts
Gust
kts
14/11:30pm 16.5 13.3 13.2 81 1.9 SE 22 35 12 19 1017.7 - 0.0
14/11:00pm 16.8 13.7 13.3 80 2.0 SE 22 32 12 17 1017.8 - 0.0
14/10:30pm 16.8 14.2 13.1 79 2.1 SSE 19 26 10 14 1018.0 - 0.0
14/10:00pm 16.8 14.5 12.9 78 2.2 SSE 17 20 9 11 1018.0 - 0.0
14/09:30pm 16.8 15.9 12.5 76 2.4 SSE 9 13 5 7 1018.0 - 0.0
14/09:00pm 17.3 16.0 12.6 74 2.7 SE 11 15 6 8 1018.1 1015.9 0.0
14/08:30pm 18.0 16.1 13.1 73 2.8 SE 15 24 8 13 1018.0 - 0.0
14/08:00pm 18.4 16.2 13.3 72 2.9 SE 17 24 9 13 1018.0 - 0.0
14/07:30pm 19.0 16.8 13.2 69 3.4 SE 17 20 9 11 1017.8 - 0.0
14/07:00pm 19.6 18.4 12.8 65 3.9 SE 11 15 6 8 1017.3 - 0.0
14/06:30pm 20.4 18.5 12.9 62 4.3 SE 15 20 8 11 1017.0 - 0.0
14/06:00pm 21.8 19.1 13.4 59 4.9 SE 20 26 11 14 1016.4 1014.2 0.0
14/05:30pm 22.7 19.1 12.9 54 5.7 SE 24 32 13 17 1016.1 - 0.0
14/05:00pm 24.0 20.1 12.0 47 7.0 SE 24 33 13 18 1015.6 - 0.0
14/04:30pm 24.4 20.0 11.7 45 7.3 SE 26 35 14 19 1015.4 - 0.0
14/04:00pm 26.0 22.0 11.7 41 8.3 SSE 24 39 13 21 1015.1 - 0.0
14/03:30pm 25.2 21.5 11.4 42 8.0 SE 22 32 12 17 1015.0 - 0.0
14/03:00pm 26.4 23.0 11.3 39 8.8 SSE 20 30 11 16 1015.1 1012.9 0.0
14/02:30pm 26.8 23.3 10.9 37 9.2 SE 20 26 11 14 1015.5 - 0.0
14/02:00pm 27.0 23.8 11.1 37 9.2 SSE 19 32 10 17 1015.7 - 0.0
14/01:30pm 26.7 23.4 10.8 37 9.2 SSE 19 30 10 16 1016.1 - 0.0
14/01:00pm 26.2 21.9 10.8 38 8.8 SSE 24 39 13 21 1016.6 - 0.0
14/12:30pm 26.2 21.5 10.8 38 8.8 SE 26 33 14 18 1017.0 - 0.0
14/12:00pm 25.1 21.0 11.6 42 7.8 SSE 24 37 13 20 1017.4 1015.3 0.0
14/11:30am 24.4 20.6 11.0 43 7.7 SSE 22 33 12 18 1018.0 - 0.0
14/11:00am 24.0 19.2 11.7 46 7.1 SE 28 39 15 21 1018.4 - 0.0
14/10:30am 24.5 20.3 13.4 50 6.6 SE 28 39 15 21 1018.8 - 0.0
14/10:00am 23.2 17.8 12.2 50 6.4 SE 32 41 17 22 1019.1 - 0.0
14/09:30am 22.9 18.7 12.5 52 6.1 ESE 26 43 14 23 1019.2 - 0.0
14/09:00am 21.8 16.5 12.6 56 5.3 SE 32 48 17 26 1019.2 1017.1 0.0
14/08:49am 21.7 17.3 12.8 57 5.2 SE 28 48 15 26 1019.2 - 0.0
14/08:30am 20.8 15.4 12.8 60 4.6 ESE 33 43 18 23 1019.1 - 0.0
14/08:00am 19.7 15.5 13.6 68 3.6 ESE 28 43 15 23 1018.8 - 0.0
14/07:30am 19.2 16.9 14.0 72 3.1 SE 19 26 10 14 1018.4 - 0.0
14/07:00am 18.0 16.2 14.5 80 2.1 ESE 17 24 9 13 1018.0 - 0.0
14/06:30am 17.3 15.4 14.2 82 1.8 SE 17 24 9 13 1017.4 - 0.0
14/06:00am 17.2 15.3 14.1 82 1.8 SE 17 24 9 13 1017.2 1015.1 0.0
14/05:30am 16.5 16.4 13.8 84 1.6 E 7 15 4 8 1017.0 - 0.0
14/05:00am 16.5 16.4 14.0 85 1.5 E 7 11 4 6 1016.9 - 0.0
14/04:30am 15.7 15.9 13.0 84 1.5 ESE 4 7 2 4 1016.7 - 0.0
14/04:00am 16.1 16.1 13.6 85 1.4 ENE 6 9 3 5 1016.6 - 0.0
14/03:30am 16.6 16.1 13.9 84 1.6 ESE 9 13 5 7 1016.6 - 0.0
14/03:00am 16.5 16.4 14.0 85 1.4 ESE 7 13 4 7 1016.7 1014.5 0.0
14/02:30am 15.2 14.8 12.5 84 1.5 SE 6 7 3 4 1017.0 - 0.0
14/02:00am 16.2 15.5 13.3 83 1.7 S 9 13 5 7 1017.3 - 0.0
14/01:30am 16.5 15.5 13.4 82 1.8 SSE 11 17 6 9 1017.8 - 0.0
14/01:00am 16.4 15.3 13.1 81 1.9 SSE 11 15 6 8 1018.0 - 0.0
14/12:30am 16.8 14.5 13.1 79 2.1 SSE 17 22 9 12 1018.4 - 0.0
14/12:00am 17.0 14.4 13.3 79 2.1 SSE 19 24 10 13 1018.7 1016.5 0.0
 
Date/Time
EST
Temp
°C
App
Temp
°C
Dew
Point
Rel
Hum
%
Delta-T
°C
Wind Press
QNH
hPa
Press
MSL
hPa
Rain
since 9 am
mm
Dir
 
Spd
km/h
Gust
km/h
Spd
kts
Gust
kts
13/11:30pm 16.9 14.4 13.4 80 2.0 SSE 19 24 10 13 1018.9 - 0.0
13/11:00pm 17.0 15.3 13.5 80 2.0 S 15 20 8 11 1018.9 - 0.0
13/10:30pm 17.2 15.4 13.3 78 2.2 S 15 20 8 11 1019.1 - 0.0
13/10:00pm 17.4 15.5 13.1 76 2.5 S 15 24 8 13 1019.2 - 0.0
13/09:30pm 17.9 15.2 13.0 73 2.8 SSE 19 26 10 14 1019.2 - 0.0

Other Formats:

Comma delimited format used in spreadsheet applications
http://www.bom.gov.au/fwo/IDQ60801/IDQ60801.95286.axf

JavaScript Object Notation format (JSON) in row-major order
http://www.bom.gov.au/fwo/IDQ60801/IDQ60801.95286.json